createdAt,value
2022-08-03T00:01:24.949Z,99004.94
2022-08-03T00:03:51.672Z,99000.59
2022-08-03T00:06:18.441Z,98998.03
2022-08-03T00:08:45.409Z,99008.13
2022-08-03T00:11:12.324Z,98999.81
2022-08-03T00:13:39.089Z,99002.75
2022-08-03T00:16:07.388Z,99006.72
2022-08-03T00:18:34.152Z,98990.97
2022-08-03T00:21:00.897Z,98999.38
2022-08-03T00:23:33.123Z,99001.28
2022-08-03T00:26:14.655Z,99000.50
2022-08-03T00:28:42.120Z,98999.84
2022-08-03T00:31:08.844Z,99007.22
2022-08-03T00:33:57.988Z,99007.59
2022-08-03T00:36:27.168Z,99007.09
2022-08-03T00:38:54.028Z,99008.16
2022-08-03T00:41:20.838Z,99006.81
2022-08-03T00:43:47.887Z,99003.09
2022-08-03T00:46:20.543Z,99006.88
2022-08-03T00:48:49.324Z,99014.44
2022-08-03T00:51:16.144Z,99005.53
2022-08-03T00:53:42.916Z,99007.44
2022-08-03T00:56:09.892Z,99002.19
2022-08-03T00:58:36.632Z,99009.38
2022-08-03T01:01:07.175Z,99005.97
2022-08-03T01:03:34.554Z,99001.91
2022-08-03T01:06:40.058Z,99005.84
2022-08-03T01:09:09.668Z,99006.59
2022-08-03T01:12:00.250Z,99009.00
2022-08-03T01:14:35.482Z,99005.41
2022-08-03T01:17:02.266Z,99007.50
2022-08-03T01:19:29.271Z,99004.25
2022-08-03T01:21:55.996Z,98998.94
2022-08-03T01:24:43.663Z,98997.56
2022-08-03T01:27:10.692Z,99003.63
2022-08-03T01:29:56.019Z,98997.66
2022-08-03T01:32:59.921Z,98999.22
2022-08-03T01:35:28.090Z,98998.56
2022-08-03T01:37:58.547Z,98999.75
2022-08-03T01:40:25.699Z,99007.66
2022-08-03T01:42:52.654Z,99004.75
2022-08-03T01:45:19.709Z,99001.34
2022-08-03T01:47:46.901Z,99003.59
2022-08-03T01:50:13.710Z,99003.09
2022-08-03T01:52:41.709Z,98999.88
2022-08-03T01:55:09.020Z,98996.59
2022-08-03T01:57:36.097Z,98995.94
2022-08-03T02:00:23.381Z,98991.00
2022-08-03T02:02:50.616Z,98996.47
2022-08-03T02:05:17.500Z,98987.56
2022-08-03T02:07:44.514Z,98982.13
2022-08-03T02:10:11.886Z,98977.22
2022-08-03T02:12:38.957Z,98981.16
2022-08-03T02:15:06.113Z,98984.72
2022-08-03T02:17:39.160Z,98983.56
2022-08-03T02:20:08.311Z,98983.03
2022-08-03T02:22:35.079Z,98987.16
2022-08-03T02:25:01.821Z,98982.03
2022-08-03T02:27:28.819Z,98990.25
2022-08-03T02:29:59.064Z,98977.94
2022-08-03T02:32:29.212Z,98983.28
2022-08-03T02:34:56.306Z,98979.88
2022-08-03T02:37:23.976Z,98984.13
2022-08-03T02:39:53.359Z,98991.66
2022-08-03T02:42:20.874Z,98989.63
2022-08-03T02:44:49.285Z,98988.41
2022-08-03T02:47:16.171Z,98986.03
2022-08-03T02:49:50.545Z,98990.34
2022-08-03T02:52:22.083Z,98989.69
2022-08-03T02:54:51.204Z,98991.88
2022-08-03T02:57:19.471Z,98997.03
2022-08-03T02:59:46.251Z,98997.03
2022-08-03T03:02:14.234Z,98998.91
2022-08-03T03:04:45.084Z,98998.41
2022-08-03T03:07:28.861Z,99002.88
2022-08-03T03:09:58.018Z,98986.28
2022-08-03T03:12:24.849Z,98993.28
2022-08-03T03:14:51.996Z,98996.53
2022-08-03T03:17:18.729Z,99001.31
2022-08-03T03:19:45.678Z,99002.38
2022-08-03T03:22:12.718Z,98996.91
2022-08-03T03:24:39.477Z,99002.38
2022-08-03T03:27:06.306Z,99000.81
2022-08-03T03:29:39.253Z,99017.75
2022-08-03T03:32:09.124Z,99004.75
2022-08-03T03:34:36.425Z,99003.22
2022-08-03T03:37:03.277Z,99006.28
2022-08-03T03:39:30.018Z,99006.09
2022-08-03T03:41:57.605Z,99012.56
2022-08-03T03:44:30.529Z,99010.72
2022-08-03T03:47:00.281Z,99010.88
2022-08-03T03:49:27.404Z,99009.00
2022-08-03T03:51:54.968Z,99010.38
2022-08-03T03:54:21.835Z,99013.94
2022-08-03T03:56:52.597Z,99015.66
2022-08-03T03:59:19.409Z,99014.78
2022-08-03T04:01:46.228Z,99014.47
2022-08-03T04:04:31.880Z,99025.22
2022-08-03T04:07:17.433Z,99015.16
2022-08-03T04:10:14.506Z,99018.91
2022-08-03T04:12:50.184Z,99026.59
2022-08-03T04:15:19.004Z,99027.59
2022-08-03T04:17:45.830Z,99025.38
2022-08-03T04:20:12.575Z,99031.88
2022-08-03T04:22:40.299Z,99029.66
2022-08-03T04:25:08.364Z,99028.81
2022-08-03T04:27:36.516Z,99032.03
2022-08-03T04:30:04.689Z,99035.97
2022-08-03T04:32:31.395Z,99037.84
2022-08-03T04:34:58.202Z,99035.44
2022-08-03T04:37:43.202Z,99030.34
2022-08-03T04:40:11.027Z,99034.97
2022-08-03T04:42:38.274Z,99032.59
2022-08-03T04:45:05.355Z,99037.88
2022-08-03T04:47:32.458Z,99040.44
2022-08-03T04:50:00.685Z,99035.81
2022-08-03T04:52:27.454Z,99035.50
2022-08-03T04:54:54.193Z,99028.31
2022-08-03T04:57:22.098Z,99036.16
2022-08-03T04:59:58.216Z,99038.59
2022-08-03T05:02:29.013Z,99031.41
2022-08-03T05:04:55.810Z,99036.88
2022-08-03T05:07:25.072Z,99036.88
2022-08-03T05:09:57.560Z,99034.50
2022-08-03T05:12:32.525Z,99039.13
2022-08-03T05:15:00.357Z,99034.50
2022-08-03T05:17:27.093Z,99035.00
2022-08-03T05:19:54.018Z,99042.84
2022-08-03T05:22:21.660Z,99037.06
2022-08-03T05:24:48.884Z,99035.53
2022-08-03T05:27:19.574Z,99028.50
2022-08-03T05:29:46.794Z,99027.28
2022-08-03T05:32:13.676Z,99032.25
2022-08-03T05:34:40.411Z,99037.19
2022-08-03T05:37:07.526Z,99034.78
2022-08-03T05:39:34.799Z,99034.09
2022-08-03T05:42:01.752Z,99039.56
2022-08-03T05:44:28.787Z,99039.19
2022-08-03T05:46:57.671Z,99043.97
2022-08-03T05:49:24.528Z,99043.63
2022-08-03T05:52:00.090Z,99043.78
2022-08-03T05:54:56.711Z,99040.16
2022-08-03T05:57:25.287Z,99038.44
2022-08-03T05:59:53.922Z,99044.72
2022-08-03T06:02:25.187Z,99041.28
2022-08-03T06:04:52.004Z,99049.25
2022-08-03T06:07:18.782Z,99043.72
2022-08-03T06:10:33.310Z,99048.31
2022-08-03T06:12:36.090Z,99055.66
2022-08-03T06:15:04.022Z,99044.66
2022-08-03T06:17:37.761Z,99051.97
2022-08-03T06:20:05.737Z,99054.66
2022-08-03T06:22:32.495Z,99065.41
2022-08-03T06:25:03.676Z,99057.13
2022-08-03T06:27:36.499Z,99058.94
2022-08-03T06:30:04.695Z,99066.91
2022-08-03T06:32:31.449Z,99069.78
2022-08-03T06:34:58.428Z,99069.34
2022-08-03T06:37:25.160Z,99063.16
2022-08-03T06:39:51.915Z,99066.66
2022-08-03T06:42:19.118Z,99063.84
2022-08-03T06:44:47.516Z,99075.59
2022-08-03T06:47:14.316Z,99069.34
2022-08-03T06:49:41.801Z,99072.22
2022-08-03T06:52:08.669Z,99070.41
2022-08-03T06:54:36.040Z,99065.84
2022-08-03T06:57:03.736Z,99064.22
2022-08-03T07:00:10.995Z,99066.03
2022-08-03T07:02:19.611Z,99065.59
2022-08-03T07:04:49.697Z,99063.59
2022-08-03T07:07:17.431Z,99066.91
2022-08-03T07:09:57.193Z,99056.63
2022-08-03T07:12:25.208Z,99058.69
2022-08-03T07:14:55.509Z,99066.38
2022-08-03T07:17:24.928Z,99061.59
2022-08-03T07:19:51.650Z,99060.06
2022-08-03T07:22:18.988Z,99052.13
2022-08-03T07:24:46.741Z,99055.03
2022-08-03T07:27:13.553Z,99065.72
2022-08-03T07:29:40.507Z,99053.34
2022-08-03T07:32:07.327Z,99057.81
2022-08-03T07:34:34.152Z,99055.56
2022-08-03T07:37:01.131Z,99060.19
2022-08-03T07:39:27.890Z,99051.38
2022-08-03T07:41:54.662Z,99057.75
2022-08-03T07:44:21.716Z,99053.19
2022-08-03T07:46:48.530Z,99063.84
2022-08-03T07:49:15.361Z,99062.25
2022-08-03T07:51:42.391Z,99062.69
2022-08-03T07:54:10.272Z,99062.56
2022-08-03T07:56:37.243Z,99066.84
2022-08-03T07:59:04.271Z,99062.22
2022-08-03T08:01:32.953Z,99061.81
2022-08-03T08:03:59.731Z,99065.91
2022-08-03T08:06:26.848Z,99066.38
2022-08-03T08:08:54.053Z,99066.41
2022-08-03T08:11:22.303Z,99058.97
2022-08-03T08:13:49.378Z,99064.09
2022-08-03T08:16:16.761Z,99064.94
2022-08-03T08:18:43.552Z,99063.47
2022-08-03T08:21:10.663Z,99072.00
2022-08-03T08:23:42.436Z,99073.47
2022-08-03T08:26:11.479Z,99065.19
2022-08-03T08:28:38.290Z,99062.81
2022-08-03T08:31:05.137Z,99069.41
2022-08-03T08:33:54.334Z,99066.41
2022-08-03T08:36:19.374Z,99066.63
2022-08-03T08:38:46.450Z,99075.53
2022-08-03T08:41:13.584Z,99077.84
2022-08-03T08:43:40.311Z,99070.16
2022-08-03T08:46:10.479Z,99067.75
2022-08-03T08:48:38.892Z,99073.25
2022-08-03T08:51:05.650Z,99077.47
2022-08-03T08:53:33.746Z,99066.34
2022-08-03T08:56:01.247Z,99067.00
2022-08-03T08:58:35.023Z,99066.28
2022-08-03T09:01:02.060Z,99065.56
2022-08-03T09:03:30.362Z,99069.59
2022-08-03T09:06:01.059Z,99072.72
2022-08-03T09:08:29.013Z,99067.59
2022-08-03T09:10:55.822Z,99060.50
2022-08-03T09:13:22.839Z,99062.38
2022-08-03T09:16:00.907Z,99058.66
2022-08-03T09:18:30.576Z,99055.34
2022-08-03T09:21:34.181Z,99060.38
2022-08-03T09:24:04.776Z,99051.03
2022-08-03T09:26:35.907Z,99053.75
2022-08-03T09:29:16.771Z,99050.22
2022-08-03T09:31:44.945Z,99054.38
2022-08-03T09:34:12.929Z,99059.00
2022-08-03T09:36:49.029Z,99060.50
2022-08-03T09:39:17.008Z,99059.41
2022-08-03T09:41:44.895Z,99055.00
2022-08-03T09:44:24.288Z,99052.97
2022-08-03T09:46:58.657Z,99050.47
2022-08-03T09:49:25.648Z,99058.03
2022-08-03T09:52:31.329Z,99053.66
2022-08-03T09:54:42.016Z,99041.31
2022-08-03T09:57:09.052Z,99052.19
2022-08-03T09:59:35.818Z,99045.94
2022-08-03T10:02:06.235Z,99048.50
2022-08-03T10:04:32.993Z,99048.88
2022-08-03T10:07:06.647Z,99047.69
2022-08-03T10:09:33.770Z,99048.19
2022-08-03T10:12:10.598Z,99043.25
2022-08-03T10:14:41.984Z,99043.75
2022-08-03T10:17:11.854Z,99045.28
2022-08-03T10:19:38.996Z,99043.72
2022-08-03T10:22:23.956Z,99046.88
2022-08-03T10:24:59.485Z,99044.09
2022-08-03T10:27:27.159Z,99041.13
2022-08-03T10:29:55.564Z,99041.72
2022-08-03T10:32:24.638Z,99043.03
2022-08-03T10:34:52.157Z,99041.69
2022-08-03T10:37:28.081Z,99035.13
2022-08-03T10:39:55.023Z,99038.50
2022-08-03T10:42:26.451Z,99034.56
2022-08-03T10:44:56.755Z,99030.47
2022-08-03T10:47:23.533Z,99031.78
2022-08-03T10:49:50.415Z,99030.25
2022-08-03T10:52:32.590Z,99024.00
2022-08-03T10:55:21.472Z,99020.81
2022-08-03T10:57:56.204Z,99024.06
2022-08-03T11:00:26.459Z,99013.31
2022-08-03T11:03:10.028Z,99017.88
2022-08-03T11:05:37.834Z,99009.84
2022-08-03T11:08:23.586Z,99019.47
2022-08-03T11:10:50.895Z,99015.06
2022-08-03T11:13:21.518Z,99002.56
2022-08-03T11:15:48.950Z,99012.69
2022-08-03T11:18:15.787Z,99003.91
2022-08-03T11:20:50.179Z,99007.53
2022-08-03T11:23:17.617Z,99000.69
2022-08-03T11:26:17.458Z,98998.28
2022-08-03T11:28:45.070Z,98999.31
2022-08-03T11:31:48.784Z,98995.50
2022-08-03T11:34:15.012Z,98993.91
2022-08-03T11:37:00.355Z,98990.34
2022-08-03T11:39:40.402Z,98998.56
2022-08-03T11:42:22.911Z,98996.44
2022-08-03T11:44:50.336Z,98995.63
2022-08-03T11:47:18.097Z,98986.44
2022-08-03T11:49:48.198Z,98983.75
2022-08-03T11:52:15.139Z,98983.00
2022-08-03T11:54:42.500Z,98983.41
2022-08-03T11:57:09.406Z,98980.63
2022-08-03T11:59:38.524Z,98985.63
2022-08-03T12:02:09.013Z,98981.78
2022-08-03T12:04:54.008Z,98986.91
2022-08-03T12:07:25.054Z,98980.75
2022-08-03T12:10:12.177Z,98981.94
2022-08-03T12:12:42.237Z,98971.41
2022-08-03T12:15:13.021Z,98977.53
2022-08-03T12:17:41.009Z,98975.63
2022-08-03T12:20:08.424Z,98977.31
2022-08-03T12:22:35.766Z,98965.63
2022-08-03T12:25:03.361Z,98971.88
2022-08-03T12:27:30.167Z,98969.69
2022-08-03T12:29:58.954Z,98970.03
2022-08-03T12:32:29.419Z,98963.38
2022-08-03T12:35:00.048Z,98969.81
2022-08-03T12:37:27.379Z,98967.31
2022-08-03T12:40:02.405Z,98970.44
2022-08-03T12:42:39.083Z,98967.34
2022-08-03T12:45:21.396Z,98968.84
2022-08-03T12:48:00.900Z,98964.13
2022-08-03T12:50:31.470Z,98961.94
2022-08-03T12:52:59.198Z,98958.59
2022-08-03T12:55:56.556Z,98961.94
2022-08-03T12:58:33.777Z,98957.47
2022-08-03T13:01:01.262Z,98955.25
2022-08-03T13:03:42.706Z,98950.25
2022-08-03T13:06:16.654Z,98961.47
2022-08-03T13:08:44.205Z,98953.38
2022-08-03T13:11:20.820Z,98947.78
2022-08-03T13:13:48.073Z,98949.25
2022-08-03T13:16:19.161Z,98948.13
2022-08-03T13:18:49.298Z,98958.50
2022-08-03T13:21:16.418Z,98949.00
2022-08-03T13:23:43.279Z,98948.16
2022-08-03T13:26:10.519Z,98940.91
2022-08-03T13:28:37.955Z,98940.63
2022-08-03T13:31:04.746Z,98948.75
2022-08-03T13:33:33.894Z,98940.06
2022-08-03T13:36:00.943Z,98945.41
2022-08-03T13:38:27.827Z,98940.38
2022-08-03T13:40:55.288Z,98941.75
2022-08-03T13:43:23.369Z,98946.25
2022-08-03T13:45:53.561Z,98943.16
2022-08-03T13:48:35.989Z,98939.81
2022-08-03T13:51:11.864Z,98938.97
2022-08-03T13:53:50.306Z,98939.81
2022-08-03T13:56:17.304Z,98941.19
2022-08-03T13:58:44.199Z,98933.34
2022-08-03T14:01:11.367Z,98935.59
2022-08-03T14:03:38.511Z,98932.53
2022-08-03T14:06:05.275Z,98927.75
2022-08-03T14:08:32.046Z,98927.47
2022-08-03T14:10:59.179Z,98926.38
2022-08-03T14:13:25.899Z,98922.16
2022-08-03T14:15:52.705Z,98921.03
2022-08-03T14:18:28.535Z,98917.16
2022-08-03T14:21:05.489Z,98926.66
2022-08-03T14:23:33.413Z,98914.09
2022-08-03T14:26:00.460Z,98918.81
2022-08-03T14:28:27.233Z,98921.59
2022-08-03T14:30:54.579Z,98914.31
2022-08-03T14:33:21.518Z,98912.38
2022-08-03T14:35:48.467Z,98909.59
2022-08-03T14:38:15.650Z,98910.94
2022-08-03T14:40:42.501Z,98909.84
2022-08-03T14:43:09.318Z,98904.53
2022-08-03T14:45:36.286Z,98902.28
2022-08-03T14:50:29.530Z,98906.50
2022-08-03T14:50:52.682Z,98904.53
2022-08-03T14:53:19.832Z,98906.50
2022-08-03T14:55:50.618Z,98902.56
2022-08-03T14:58:22.432Z,98892.78
2022-08-03T15:00:49.962Z,98894.13
2022-08-03T15:03:17.607Z,98895.56
2022-08-03T15:05:44.754Z,98891.31
2022-08-03T15:08:11.664Z,98892.75
2022-08-03T15:10:40.368Z,98892.19
2022-08-03T15:13:12.252Z,98888.84
2022-08-03T15:15:39.113Z,98894.72
2022-08-03T15:18:05.880Z,98894.13
2022-08-03T15:20:43.808Z,98894.13
2022-08-03T15:23:12.426Z,98891.03
2022-08-03T15:26:28.678Z,98881.81
2022-08-03T15:28:26.211Z,98882.09
2022-08-03T15:30:53.301Z,98886.84
2022-08-03T15:33:20.276Z,98880.66
2022-08-03T15:35:47.756Z,98873.41
2022-08-03T15:38:14.960Z,98877.59
2022-08-03T15:40:41.805Z,98875.06
2022-08-03T15:43:08.738Z,98879.28
2022-08-03T15:45:36.249Z,98880.09
2022-08-03T15:48:04.679Z,98881.50
2022-08-03T15:50:31.450Z,98882.34
2022-08-03T15:52:58.403Z,98875.31
2022-08-03T15:55:25.245Z,98873.38
2022-08-03T15:59:10.001Z,98866.09
2022-08-03T16:00:39.630Z,98870.56
2022-08-03T16:03:06.435Z,98867.13
2022-08-03T16:05:33.264Z,98865.47
2022-08-03T16:08:03.572Z,98867.13
2022-08-03T16:10:31.593Z,98862.34
2022-08-03T16:13:01.345Z,98859.00
2022-08-03T16:15:28.511Z,98858.44
2022-08-03T16:17:55.322Z,98856.47
2022-08-03T16:20:31.261Z,98855.34
2022-08-03T16:23:06.287Z,98854.78
2022-08-03T16:25:42.023Z,98855.06
2022-08-03T16:28:13.932Z,98849.72
2022-08-03T16:30:44.510Z,98860.28
2022-08-03T16:33:11.799Z,98851.91
2022-08-03T16:35:44.865Z,98854.13
2022-08-03T16:38:16.592Z,98858.88
2022-08-03T16:40:47.158Z,98853.25
2022-08-03T16:43:19.016Z,98853.22
2022-08-03T16:45:46.536Z,98856.28
2022-08-03T16:48:13.467Z,98849.28
2022-08-03T16:50:40.227Z,98854.84
2022-08-03T16:53:09.117Z,98859.31
2022-08-03T16:55:48.477Z,98855.09
2022-08-03T16:58:34.379Z,98858.13
2022-08-03T17:01:20.845Z,98861.19
2022-08-03T17:04:01.575Z,98863.69
2022-08-03T17:06:34.294Z,98857.81
2022-08-03T17:09:03.376Z,98862.81
2022-08-03T17:11:32.936Z,98858.53
2022-08-03T17:14:00.172Z,98861.28
2022-08-03T17:16:27.180Z,98867.34
2022-08-03T17:18:58.675Z,98871.25
2022-08-03T17:21:30.958Z,98860.34
2022-08-03T17:24:00.025Z,98866.50
2022-08-03T17:26:30.371Z,98873.72
2022-08-03T17:28:58.454Z,98864.22
2022-08-03T17:31:32.207Z,98865.84
2022-08-03T17:34:12.474Z,98865.78
2022-08-03T17:37:03.111Z,98873.88
2022-08-03T17:39:48.427Z,98872.09
2022-08-03T17:42:30.343Z,98874.84
2022-08-03T17:45:02.296Z,98874.53
2022-08-03T17:47:42.033Z,98877.56
2022-08-03T17:50:24.832Z,98874.44
2022-08-03T17:55:59.435Z,98870.13
2022-08-03T17:58:37.230Z,98873.75
2022-08-03T18:02:00.275Z,98880.09
2022-08-03T18:04:12.670Z,98880.28
2022-08-03T18:06:56.591Z,98877.44
2022-08-03T18:10:06.764Z,98881.84
2022-08-03T18:12:14.303Z,98878.41
2022-08-03T18:14:57.694Z,98875.84
2022-08-03T18:17:54.585Z,98877.72
2022-08-03T18:20:32.808Z,98884.84
2022-08-03T18:23:04.997Z,98888.34
2022-08-03T18:25:45.554Z,98880.69
2022-08-03T18:28:18.947Z,98882.81
2022-08-03T18:30:53.551Z,98884.38
2022-08-03T18:34:19.856Z,98888.09
2022-08-03T18:36:10.446Z,98890.25
2022-08-03T18:38:40.898Z,98894.13
2022-08-03T18:41:12.701Z,98898.84
2022-08-03T18:44:06.812Z,98900.44
2022-08-03T18:46:43.166Z,98905.34
2022-08-03T18:49:11.422Z,98911.63
2022-08-03T18:51:43.481Z,98912.38
2022-08-03T18:54:46.692Z,98911.44
2022-08-03T18:57:07.761Z,98913.81
2022-08-03T18:59:38.590Z,98912.84
2022-08-03T19:02:06.091Z,98912.91
2022-08-03T19:04:45.465Z,98920.31
2022-08-03T19:07:14.666Z,98914.53
2022-08-03T19:09:44.420Z,98916.56
2022-08-03T19:12:37.433Z,98922.19
2022-08-03T19:15:10.562Z,98927.38
2022-08-03T19:17:40.276Z,98923.66
2022-08-03T19:20:09.156Z,98917.13
2022-08-03T19:22:37.172Z,98924.53
2022-08-03T19:25:04.598Z,98926.13
2022-08-03T19:27:31.571Z,98922.59
2022-08-03T19:30:02.913Z,98924.16
2022-08-03T19:32:31.289Z,98919.56
2022-08-03T19:34:59.582Z,98926.94
2022-08-03T19:37:38.413Z,98925.13
2022-08-03T19:40:10.429Z,98931.88
2022-08-03T19:42:38.032Z,98928.16
2022-08-03T19:45:11.461Z,98927.44
2022-08-03T19:48:09.977Z,98932.13
2022-08-03T19:50:37.437Z,98928.81
2022-08-03T19:53:12.267Z,98926.63
2022-08-03T19:55:48.952Z,98915.03
2022-08-03T19:58:17.810Z,98923.81
2022-08-03T20:00:51.436Z,98926.47
2022-08-03T20:03:21.844Z,98921.25
2022-08-03T20:05:51.999Z,98921.75
2022-08-03T20:08:21.257Z,98923.41
2022-08-03T20:10:48.047Z,98918.75
2022-08-03T20:13:16.098Z,98931.66
2022-08-03T20:15:46.519Z,98927.91
2022-08-03T20:18:16.918Z,98926.88
2022-08-03T20:20:43.912Z,98920.81
2022-08-03T20:23:15.997Z,98920.69
2022-08-03T20:25:57.420Z,98917.41
2022-08-03T20:28:31.013Z,98926.03
2022-08-03T20:30:58.224Z,98925.25
2022-08-03T20:33:27.924Z,98926.75
2022-08-03T20:36:13.693Z,98931.31
2022-08-03T20:38:46.881Z,98928.84
2022-08-03T20:41:14.549Z,98923.00
2022-08-03T20:43:41.594Z,98927.06
2022-08-03T20:46:31.913Z,98929.31
2022-08-03T20:48:56.033Z,98925.91
2022-08-03T20:51:49.497Z,98920.84
2022-08-03T20:54:20.830Z,98921.13
2022-08-03T20:56:57.193Z,98927.31
2022-08-03T20:59:28.869Z,98932.06
2022-08-03T21:01:57.216Z,98929.53
2022-08-03T21:04:24.540Z,98928.75
2022-08-03T21:06:56.018Z,98936.03
2022-08-03T21:09:24.566Z,98937.34
2022-08-03T21:12:01.416Z,98930.59
2022-08-03T21:12:55.594Z,98872.72
2022-08-03T21:14:45.340Z,98930.22
2022-08-03T21:17:25.104Z,98930.03
2022-08-03T21:19:58.248Z,98936.72
2022-08-03T21:22:25.257Z,98937.59
2022-08-03T21:24:54.417Z,98933.31
2022-08-03T21:27:23.560Z,98935.34
2022-08-03T21:29:52.866Z,98937.06
2022-08-03T21:32:30.035Z,98930.94
2022-08-03T21:35:00.532Z,98942.66
2022-08-03T21:37:27.300Z,98934.81
2022-08-03T21:39:54.577Z,98938.22
2022-08-03T21:42:23.879Z,98938.28
2022-08-03T21:44:53.523Z,98940.63
2022-08-03T21:47:23.967Z,98938.75
2022-08-03T21:50:08.663Z,98936.22
2022-08-03T21:52:42.912Z,98941.75
2022-08-03T21:55:20.694Z,98939.88
2022-08-03T21:57:50.790Z,98940.72
2022-08-03T22:00:18.366Z,98941.19
2022-08-03T22:02:45.549Z,98940.78
2022-08-03T22:05:28.138Z,98937.41
2022-08-03T22:08:07.650Z,98941.91
2022-08-03T22:10:34.609Z,98946.56
2022-08-03T22:13:01.374Z,98942.34
2022-08-03T22:15:28.114Z,98939.81
2022-08-03T22:17:57.165Z,98936.00
2022-08-03T22:20:24.282Z,98941.94
2022-08-03T22:22:55.757Z,98936.16
2022-08-03T22:25:30.848Z,98942.78
2022-08-03T22:28:01.686Z,98932.38
2022-08-03T22:30:28.891Z,98946.38
2022-08-03T22:32:56.408Z,98950.03
2022-08-03T22:35:24.513Z,98949.38
2022-08-03T22:37:52.777Z,98946.41
2022-08-03T22:40:19.540Z,98951.72
2022-08-03T22:42:46.408Z,98953.44
2022-08-03T22:46:07.796Z,98954.06
2022-08-03T22:48:00.360Z,98953.66
2022-08-03T22:50:33.530Z,98947.72
2022-08-03T22:53:00.809Z,98956.00
2022-08-03T22:55:27.556Z,98950.25
2022-08-03T22:57:56.100Z,98946.00
2022-08-03T23:00:23.169Z,98944.03
2022-08-03T23:02:49.972Z,98942.78
2022-08-03T23:06:01.087Z,98940.63
2022-08-03T23:08:04.776Z,98937.88
2022-08-03T23:10:31.756Z,98941.91
2022-08-03T23:12:58.605Z,98938.94
2022-08-03T23:15:25.352Z,98940.19
2022-08-03T23:17:57.807Z,98938.06
2022-08-03T23:20:26.621Z,98928.72
2022-08-03T23:22:54.309Z,98931.06
2022-08-03T23:25:22.098Z,98927.22
2022-08-03T23:27:49.224Z,98935.25
2022-08-03T23:30:34.169Z,98939.09
2022-08-03T23:33:00.941Z,98937.78
2022-08-03T23:36:18.755Z,98930.38
2022-08-03T23:38:36.353Z,98930.13
2022-08-03T23:41:03.531Z,98932.63
2022-08-03T23:43:53.578Z,98929.22
2022-08-03T23:46:19.839Z,98937.06
2022-08-03T23:48:46.646Z,98930.47
2022-08-03T23:51:14.629Z,98925.38
2022-08-03T23:53:41.939Z,98928.53
2022-08-03T23:56:24.716Z,98926.38
2022-08-03T23:58:51.709Z,98922.75
